createdAt,value
2023-03-15T00:01:46.802Z,11.45
2023-03-15T00:04:57.377Z,11.47
2023-03-15T00:08:11.011Z,13.05
2023-03-15T00:11:18.708Z,11.09
2023-03-15T00:14:25.111Z,14.19
2023-03-15T00:17:34.986Z,15.38
2023-03-15T00:20:46.531Z,11.47
2023-03-15T00:23:56.392Z,16.65
2023-03-15T00:27:05.051Z,14.57
2023-03-15T00:30:18.912Z,15.45
2023-03-15T00:33:24.931Z,13.45
2023-03-15T00:36:36.037Z,14.31
2023-03-15T00:39:41.905Z,8.84
2023-03-15T00:42:50.595Z,6.80
2023-03-15T00:45:56.478Z,6.19
2023-03-15T00:49:03.153Z,8.65
2023-03-15T00:52:12.855Z,9.76
2023-03-15T00:55:23.052Z,10.77
2023-03-15T00:58:29.036Z,12.20
2023-03-15T01:01:35.910Z,9.69
2023-03-15T01:04:43.554Z,10.53
2023-03-15T01:07:54.677Z,10.60
2023-03-15T01:11:06.346Z,12.26
2023-03-15T01:14:13.819Z,10.57
2023-03-15T01:17:19.771Z,8.56
2023-03-15T01:20:26.555Z,8.24
2023-03-15T01:23:35.129Z,11.13
2023-03-15T01:26:41.942Z,9.83
2023-03-15T01:29:49.749Z,9.09
2023-03-15T01:32:56.827Z,11.09
2023-03-15T01:36:06.169Z,11.45
2023-03-15T01:39:16.593Z,9.55
2023-03-15T01:42:26.286Z,10.49
2023-03-15T01:46:05.141Z,11.22
2023-03-15T01:49:23.032Z,11.38
2023-03-15T01:52:37.293Z,9.17
2023-03-15T01:56:04.888Z,9.54
2023-03-15T01:59:24.453Z,8.54
2023-03-15T02:02:32.149Z,8.37
2023-03-15T02:05:49.784Z,8.29
2023-03-15T02:09:22.402Z,9.19
2023-03-15T02:12:37.950Z,8.16
2023-03-15T02:15:46.969Z,8.33
2023-03-15T02:19:00.750Z,7.96
2023-03-15T02:22:29.560Z,8.04
2023-03-15T02:25:53.928Z,7.96
2023-03-15T02:29:09.346Z,8.28
2023-03-15T02:32:16.093Z,8.70
2023-03-15T02:35:41.303Z,9.11
2023-03-15T02:38:48.585Z,9.17
2023-03-15T02:42:08.078Z,8.93
2023-03-15T02:45:18.531Z,8.59
2023-03-15T02:48:25.524Z,8.24
2023-03-15T02:51:36.296Z,8.74
2023-03-15T02:54:43.747Z,8.57
2023-03-15T02:57:51.040Z,8.14
2023-03-15T03:00:59.464Z,8.26
2023-03-15T03:04:07.155Z,9.61
2023-03-15T03:07:13.578Z,11.19
2023-03-15T03:10:42.988Z,9.24
2023-03-15T03:13:49.253Z,10.32
2023-03-15T03:17:05.419Z,9.46
2023-03-15T03:20:16.948Z,9.12
2023-03-15T03:23:28.378Z,9.59
2023-03-15T03:26:36.382Z,9.78
2023-03-15T03:29:43.587Z,10.50
2023-03-15T03:32:54.426Z,10.81
2023-03-15T03:36:07.852Z,10.77
2023-03-15T03:39:14.284Z,11.00
2023-03-15T03:42:23.340Z,10.97
2023-03-15T03:45:29.438Z,10.99
2023-03-15T03:48:44.004Z,12.33
2023-03-15T03:51:49.954Z,12.67
2023-03-15T03:54:57.175Z,11.65
2023-03-15T03:58:03.150Z,11.63
2023-03-15T04:01:17.970Z,11.12
2023-03-15T04:04:42.399Z,12.32
2023-03-15T04:07:57.199Z,12.61
2023-03-15T04:11:10.050Z,11.62
2023-03-15T04:14:19.140Z,11.49
2023-03-15T04:17:28.082Z,12.45
2023-03-15T04:20:39.381Z,10.95
2023-03-15T04:23:46.332Z,11.22
2023-03-15T04:26:58.702Z,11.37
2023-03-15T04:30:27.326Z,11.99
2023-03-15T04:34:00.127Z,12.26
2023-03-15T04:37:15.330Z,14.97
2023-03-15T04:40:43.232Z,15.11
2023-03-15T04:44:21.252Z,19.46
2023-03-15T04:48:01.927Z,16.97
2023-03-15T04:51:19.931Z,17.21
2023-03-15T04:54:45.338Z,17.46
2023-03-15T04:58:16.439Z,24.65
2023-03-15T05:01:42.111Z,18.64
2023-03-15T05:05:20.323Z,18.17
2023-03-15T05:08:40.819Z,16.57
2023-03-15T05:11:55.860Z,17.44
2023-03-15T05:15:24.647Z,14.55
2023-03-15T05:18:30.575Z,14.60
2023-03-15T05:21:52.516Z,17.24
2023-03-15T05:25:21.287Z,14.71
2023-03-15T05:28:49.317Z,13.55
2023-03-15T05:31:55.339Z,12.53
2023-03-15T05:35:37.526Z,12.93
2023-03-15T05:38:53.122Z,12.83
2023-03-15T05:42:10.904Z,12.08
2023-03-15T05:45:40.413Z,11.77
2023-03-15T05:49:04.988Z,12.25
2023-03-15T05:52:26.750Z,14.78
2023-03-15T05:55:59.653Z,12.07
2023-03-15T05:59:21.119Z,15.27
2023-03-15T06:02:55.009Z,14.17
2023-03-15T06:06:19.417Z,12.04
2023-03-15T06:09:33.461Z,13.29
2023-03-15T06:12:50.433Z,12.45
2023-03-15T06:15:57.687Z,11.51
2023-03-15T06:19:08.210Z,12.17
2023-03-15T06:22:16.438Z,9.73
2023-03-15T06:25:30.823Z,10.54
2023-03-15T06:28:38.967Z,9.22
2023-03-15T06:31:45.011Z,8.63
2023-03-15T06:34:55.066Z,7.15
2023-03-15T06:38:01.541Z,8.23
2023-03-15T06:41:08.818Z,9.71
2023-03-15T06:44:16.080Z,7.12
2023-03-15T06:47:23.729Z,6.35
2023-03-15T06:50:46.092Z,9.18
2023-03-15T06:53:54.307Z,19.37
2023-03-15T06:57:01.601Z,13.80
2023-03-15T07:00:11.514Z,10.42
2023-03-15T07:03:17.485Z,11.65
2023-03-15T07:06:28.491Z,25.56
2023-03-15T07:09:34.406Z,12.29
2023-03-15T07:12:41.124Z,10.33
2023-03-15T07:15:47.997Z,9.11
2023-03-15T07:18:56.408Z,9.30
2023-03-15T07:22:04.919Z,6.07
2023-03-15T07:25:13.033Z,6.01
2023-03-15T07:28:19.075Z,6.43
2023-03-15T07:31:26.096Z,8.25
2023-03-15T07:34:32.046Z,7.20
2023-03-15T07:37:44.757Z,6.98
2023-03-15T07:40:50.819Z,7.04
2023-03-15T07:43:58.552Z,7.68
2023-03-15T07:47:04.599Z,6.93
2023-03-15T07:50:16.456Z,6.71
2023-03-15T07:53:32.190Z,6.01
2023-03-15T07:56:39.334Z,6.15
2023-03-15T07:59:46.419Z,5.70
2023-03-15T08:02:56.495Z,5.76
2023-03-15T08:06:02.368Z,6.92
2023-03-15T08:09:13.230Z,6.71
2023-03-15T08:12:30.289Z,6.33
2023-03-15T08:15:44.404Z,8.56
2023-03-15T08:18:50.271Z,8.00
2023-03-15T08:21:57.148Z,7.86
2023-03-15T08:25:05.603Z,6.46
2023-03-15T08:28:12.917Z,5.63
2023-03-15T08:31:18.967Z,6.02
2023-03-15T08:34:26.326Z,5.36
2023-03-15T08:37:32.159Z,5.73
2023-03-15T08:40:41.703Z,5.91
2023-03-15T08:43:47.711Z,5.67
2023-03-15T08:46:54.480Z,7.70
2023-03-15T08:50:00.482Z,15.20
2023-03-15T08:53:07.154Z,13.32
2023-03-15T08:56:16.397Z,11.43
2023-03-15T08:59:31.704Z,23.81
2023-03-15T09:02:40.280Z,13.98
2023-03-15T09:05:49.863Z,23.58
2023-03-15T09:08:56.753Z,15.09
2023-03-15T09:12:16.498Z,10.71
2023-03-15T09:15:22.743Z,15.04
2023-03-15T09:18:29.623Z,7.55
2023-03-15T09:21:35.779Z,5.20
2023-03-15T09:24:42.491Z,18.04
2023-03-15T09:27:52.938Z,10.82
2023-03-15T09:31:00.203Z,8.73
2023-03-15T09:34:06.897Z,6.41
2023-03-15T09:37:13.940Z,7.68
2023-03-15T09:40:27.647Z,6.85
2023-03-15T09:44:25.432Z,5.78
2023-03-15T09:47:49.909Z,6.52
2023-03-15T09:51:12.183Z,5.19
2023-03-15T09:54:24.096Z,7.29
2023-03-15T09:57:49.913Z,6.49
2023-03-15T10:01:07.595Z,5.51
2023-03-15T10:04:30.404Z,6.07
2023-03-15T10:07:36.327Z,7.59
2023-03-15T10:10:56.504Z,5.55
2023-03-15T10:14:25.609Z,11.16
2023-03-15T10:17:53.247Z,12.63
2023-03-15T10:21:14.110Z,5.81
2023-03-15T10:24:27.299Z,5.72
2023-03-15T10:27:44.553Z,6.28
2023-03-15T10:30:54.466Z,6.40
2023-03-15T10:34:09.827Z,6.47
2023-03-15T10:37:16.553Z,6.18
2023-03-15T10:40:45.369Z,8.77
2023-03-15T10:44:04.902Z,9.85
2023-03-15T10:47:23.713Z,11.75
2023-03-15T10:50:42.352Z,5.77
2023-03-15T10:53:58.759Z,5.90
2023-03-15T10:57:16.728Z,7.13
2023-03-15T11:00:32.617Z,8.60
2023-03-15T11:03:44.191Z,9.76
2023-03-15T11:07:03.828Z,7.47
2023-03-15T11:10:25.490Z,8.48
2023-03-15T11:13:34.140Z,6.40
2023-03-15T11:16:41.441Z,6.46
2023-03-15T11:19:59.883Z,6.46
2023-03-15T11:23:22.822Z,9.81
2023-03-15T11:26:33.012Z,7.12
2023-03-15T11:29:45.343Z,6.93
2023-03-15T11:32:51.355Z,6.91
2023-03-15T11:36:03.079Z,7.31
2023-03-15T11:39:18.698Z,21.52
2023-03-15T11:42:36.851Z,29.02
2023-03-15T11:45:54.214Z,6.85
2023-03-15T11:49:45.504Z,9.72
2023-03-15T11:52:54.016Z,21.21
2023-03-15T11:56:26.615Z,22.06
2023-03-15T11:59:36.891Z,9.55
2023-03-15T12:02:54.470Z,9.76
2023-03-15T12:06:34.297Z,10.24
2023-03-15T12:09:52.646Z,9.16
2023-03-15T12:13:20.018Z,9.26
2023-03-15T12:16:31.781Z,7.94
2023-03-15T12:19:40.560Z,6.59
2023-03-15T12:22:57.425Z,8.68
2023-03-15T12:26:26.922Z,7.25
2023-03-15T12:29:38.860Z,6.69
2023-03-15T12:32:55.140Z,11.84
2023-03-15T12:36:18.446Z,11.31
2023-03-15T12:39:43.072Z,11.78
2023-03-15T12:43:09.322Z,16.36
2023-03-15T12:47:04.624Z,9.05
2023-03-15T12:50:41.710Z,9.07
2023-03-15T12:53:57.174Z,9.96
2023-03-15T12:57:07.976Z,14.17
2023-03-15T13:00:23.990Z,7.53
2023-03-15T13:03:34.950Z,8.21
2023-03-15T13:07:07.697Z,11.25
2023-03-15T13:11:04.205Z,6.84
2023-03-15T13:14:35.914Z,10.99
2023-03-15T13:17:53.889Z,9.28
2023-03-15T13:21:21.356Z,10.28
2023-03-15T13:24:45.457Z,13.98
2023-03-15T13:28:01.954Z,15.14
2023-03-15T13:31:29.939Z,16.60
2023-03-15T13:34:38.435Z,12.65
2023-03-15T13:37:47.056Z,10.98
2023-03-15T13:40:54.102Z,8.14
2023-03-15T13:44:05.252Z,18.55
2023-03-15T13:47:23.610Z,15.77
2023-03-15T13:50:29.675Z,7.51
2023-03-15T13:53:49.788Z,6.48
2023-03-15T13:57:06.492Z,11.39
2023-03-15T14:00:19.460Z,12.44
2023-03-15T14:03:26.317Z,9.40
2023-03-15T14:06:33.713Z,10.23
2023-03-15T14:09:42.310Z,11.35
2023-03-15T14:12:50.008Z,6.76
2023-03-15T14:16:04.195Z,7.64
2023-03-15T14:19:22.187Z,8.71
2023-03-15T14:22:36.038Z,10.07
2023-03-15T14:25:46.778Z,14.35
2023-03-15T14:29:04.972Z,16.91
2023-03-15T14:32:27.921Z,15.12
2023-03-15T14:35:43.705Z,10.96
2023-03-15T14:38:56.460Z,9.70
2023-03-15T14:42:04.886Z,7.21
2023-03-15T14:45:13.502Z,9.07
2023-03-15T14:48:32.164Z,14.43
2023-03-15T14:51:46.416Z,10.69
2023-03-15T14:55:06.765Z,8.73
2023-03-15T14:58:20.237Z,7.40
2023-03-15T15:01:30.412Z,4.93
2023-03-15T15:04:39.799Z,7.46
2023-03-15T15:07:45.868Z,11.44
2023-03-15T15:10:58.920Z,10.05
2023-03-15T15:14:07.508Z,16.96
2023-03-15T15:17:14.304Z,19.87
2023-03-15T15:20:20.997Z,6.97
2023-03-15T15:23:32.258Z,7.77
2023-03-15T15:26:39.303Z,7.71
2023-03-15T15:29:49.343Z,5.46
2023-03-15T15:33:07.668Z,7.23
2023-03-15T15:36:24.405Z,14.04
2023-03-15T15:39:31.133Z,12.59
2023-03-15T15:42:37.820Z,13.16
2023-03-15T15:45:49.257Z,15.05
2023-03-15T15:48:56.304Z,12.00
2023-03-15T15:52:04.926Z,7.72
2023-03-15T15:55:15.738Z,7.09
2023-03-15T15:58:23.435Z,18.86
2023-03-15T16:01:33.398Z,12.47
2023-03-15T16:04:42.243Z,6.94
2023-03-15T16:07:49.837Z,19.80
2023-03-15T16:10:59.077Z,16.41
2023-03-15T16:14:06.302Z,8.73
2023-03-15T16:17:24.378Z,16.52
2023-03-15T16:20:31.386Z,11.31
2023-03-15T16:23:38.875Z,11.04
2023-03-15T16:26:52.580Z,20.70
2023-03-15T16:29:59.358Z,13.92
2023-03-15T16:33:19.110Z,9.54
2023-03-15T16:36:28.740Z,18.23
2023-03-15T16:39:41.123Z,15.09
2023-03-15T16:43:06.063Z,16.05
2023-03-15T16:46:26.957Z,15.77
2023-03-15T16:49:59.236Z,23.17
2023-03-15T16:53:27.003Z,10.94
2023-03-15T16:56:43.238Z,13.00
2023-03-15T16:59:49.171Z,25.28
2023-03-15T17:03:00.178Z,39.44
2023-03-15T17:06:09.745Z,25.74
2023-03-15T17:09:22.846Z,23.19
2023-03-15T17:12:37.232Z,20.54
2023-03-15T17:15:44.417Z,20.89
2023-03-15T17:18:56.003Z,24.59
2023-03-15T17:22:05.689Z,21.86
2023-03-15T17:25:18.603Z,21.74
2023-03-15T17:28:31.811Z,21.21
2023-03-15T17:31:40.324Z,20.61
2023-03-15T17:34:52.827Z,23.74
2023-03-15T17:38:08.783Z,20.37
2023-03-15T17:41:37.406Z,45.72
2023-03-15T17:44:43.514Z,26.55
2023-03-15T17:47:50.484Z,25.19
2023-03-15T17:50:59.369Z,28.11
2023-03-15T17:54:20.949Z,32.04
2023-03-15T17:57:27.342Z,27.15
2023-03-15T18:00:42.290Z,22.64
2023-03-15T18:03:49.532Z,24.73
2023-03-15T18:06:56.501Z,30.69
2023-03-15T18:10:05.207Z,35.51
2023-03-15T18:13:19.220Z,36.45
2023-03-15T18:16:25.774Z,36.77
2023-03-15T18:19:33.069Z,35.46
2023-03-15T18:22:42.431Z,31.78
2023-03-15T18:25:52.461Z,28.98
2023-03-15T18:28:58.680Z,29.53
2023-03-15T18:32:05.759Z,30.97
2023-03-15T18:35:26.405Z,33.07
2023-03-15T18:38:33.482Z,38.06
2023-03-15T18:41:42.270Z,37.33
2023-03-15T18:44:49.115Z,40.29
2023-03-15T18:47:55.555Z,44.26
2023-03-15T18:51:02.404Z,50.54
2023-03-15T18:54:08.794Z,74.11
2023-03-15T18:57:20.706Z,108.89
2023-03-15T19:00:36.343Z,149.75
2023-03-15T19:03:44.170Z,187.50
2023-03-15T19:06:51.759Z,157.20
2023-03-15T19:09:59.545Z,129.64
2023-03-15T19:13:09.880Z,105.86
2023-03-15T19:16:17.841Z,101.88
2023-03-15T19:19:24.181Z,108.91
2023-03-15T19:22:32.047Z,100.15
2023-03-15T19:25:40.413Z,80.85
2023-03-15T19:28:50.715Z,70.41
2023-03-15T19:31:57.380Z,68.57
2023-03-15T19:35:06.025Z,68.84
2023-03-15T19:38:13.103Z,68.77
2023-03-15T19:41:20.195Z,68.93
2023-03-15T19:44:30.840Z,74.47
2023-03-15T19:47:38.363Z,65.92
2023-03-15T19:50:45.513Z,56.40
2023-03-15T19:53:56.775Z,48.60
2023-03-15T19:57:03.673Z,58.59
2023-03-15T20:00:16.992Z,96.22
2023-03-15T20:03:25.920Z,70.42
2023-03-15T20:06:33.147Z,52.63
2023-03-15T20:09:40.076Z,48.89
2023-03-15T20:12:47.663Z,48.39
2023-03-15T20:16:03.225Z,43.11
2023-03-15T20:19:11.048Z,44.22
2023-03-15T20:22:18.116Z,41.92
2023-03-15T20:25:26.266Z,43.67
2023-03-15T20:28:32.444Z,47.84
2023-03-15T20:31:48.556Z,55.23
2023-03-15T20:34:57.654Z,44.17
2023-03-15T20:38:06.978Z,34.76
2023-03-15T20:41:20.741Z,33.87
2023-03-15T20:44:38.074Z,38.33
2023-03-15T20:47:46.762Z,42.12
2023-03-15T20:50:54.213Z,45.97
2023-03-15T20:54:01.093Z,52.94
2023-03-15T20:57:08.435Z,54.23
2023-03-15T21:00:22.776Z,57.50
2023-03-15T21:03:44.713Z,49.63
2023-03-15T21:06:50.959Z,69.41
2023-03-15T21:09:57.729Z,58.31
2023-03-15T21:13:10.193Z,44.23
2023-03-15T21:16:18.507Z,36.22
2023-03-15T21:19:29.402Z,42.42
2023-03-15T21:22:37.483Z,47.55
2023-03-15T21:25:57.457Z,51.78
2023-03-15T21:29:04.224Z,65.41
2023-03-15T21:32:11.301Z,53.40
2023-03-15T21:35:28.716Z,59.11
2023-03-15T21:38:37.613Z,54.83
2023-03-15T21:41:46.254Z,50.21
2023-03-15T21:44:55.758Z,55.37
2023-03-15T21:48:04.660Z,65.14
2023-03-15T21:51:14.707Z,74.40
2023-03-15T21:54:22.215Z,64.12
2023-03-15T21:57:34.073Z,56.85
2023-03-15T22:00:41.121Z,51.23
2023-03-15T22:03:47.122Z,43.30
2023-03-15T22:06:57.819Z,52.85
2023-03-15T22:10:05.075Z,51.58
2023-03-15T22:13:11.725Z,47.15
2023-03-15T22:16:17.996Z,48.48
2023-03-15T22:19:24.726Z,41.93
2023-03-15T22:22:33.722Z,38.41
2023-03-15T22:25:45.174Z,38.77
2023-03-15T22:28:51.706Z,41.13
2023-03-15T22:31:58.374Z,44.52
2023-03-15T22:35:08.467Z,43.97
2023-03-15T22:38:17.822Z,43.68
2023-03-15T22:41:24.305Z,44.81
2023-03-15T22:44:31.066Z,39.69
2023-03-15T22:47:41.855Z,37.62
2023-03-15T22:50:48.533Z,37.84
2023-03-15T22:53:57.438Z,39.44
2023-03-15T22:57:17.693Z,42.84
2023-03-15T23:00:43.976Z,42.70
2023-03-15T23:03:51.300Z,44.29
2023-03-15T23:06:57.214Z,44.06
2023-03-15T23:10:09.086Z,42.98
2023-03-15T23:13:15.130Z,45.37
2023-03-15T23:16:23.672Z,49.81
2023-03-15T23:19:38.396Z,52.00
2023-03-15T23:22:46.389Z,45.58
2023-03-15T23:25:55.413Z,42.66
2023-03-15T23:29:01.993Z,45.09
2023-03-15T23:32:09.708Z,52.26
2023-03-15T23:35:16.381Z,47.37
2023-03-15T23:38:22.437Z,51.68
2023-03-15T23:41:31.714Z,49.30
2023-03-15T23:44:37.576Z,46.46
2023-03-15T23:47:46.086Z,49.26
2023-03-15T23:50:56.475Z,43.24
2023-03-15T23:54:04.298Z,46.79
2023-03-15T23:57:16.248Z,46.85
